sensor_id;sensor_type;location;lat;lon;timestamp;P1;durP1;ratioP1;P2;durP2;ratioP2
55009;SDS011;40903;51.638;7.528;2023-11-19T00:02:07;1.00;;;0.90;;
55009;SDS011;40903;51.638;7.528;2023-11-19T00:04:37;2.17;;;0.90;;
55009;SDS011;40903;51.638;7.528;2023-11-19T00:07:04;1.27;;;0.90;;
55009;SDS011;40903;51.638;7.528;2023-11-19T00:09:32;0.87;;;0.87;;
55009;SDS011;40903;51.638;7.528;2023-11-19T00:11:58;0.90;;;0.90;;
55009;SDS011;40903;51.638;7.528;2023-11-19T00:14:25;1.50;;;1.40;;
55009;SDS011;40903;51.638;7.528;2023-11-19T00:16:51;1.20;;;1.03;;
55009;SDS011;40903;51.638;7.528;2023-11-19T00:19:18;0.97;;;0.90;;
55009;SDS011;40903;51.638;7.528;2023-11-19T00:21:44;2.93;;;1.03;;
55009;SDS011;40903;51.638;7.528;2023-11-19T00:24:10;2.53;;;1.23;;
55009;SDS011;40903;51.638;7.528;2023-11-19T00:26:37;1.20;;;1.10;;
55009;SDS011;40903;51.638;7.528;2023-11-19T00:29:03;1.60;;;1.30;;
55009;SDS011;40903;51.638;7.528;2023-11-19T00:31:29;2.60;;;1.43;;
55009;SDS011;40903;51.638;7.528;2023-11-19T00:33:55;1.53;;;1.20;;
55009;SDS011;40903;51.638;7.528;2023-11-19T00:36:20;1.63;;;1.30;;
55009;SDS011;40903;51.638;7.528;2023-11-19T00:38:46;1.67;;;1.10;;
55009;SDS011;40903;51.638;7.528;2023-11-19T00:41:11;1.23;;;1.10;;
55009;SDS011;40903;51.638;7.528;2023-11-19T00:43:37;1.03;;;0.90;;
55009;SDS011;40903;51.638;7.528;2023-11-19T00:46:03;3.50;;;1.50;;
55009;SDS011;40903;51.638;7.528;2023-11-19T00:48:32;1.73;;;1.60;;
55009;SDS011;40903;51.638;7.528;2023-11-19T00:51:00;2.23;;;1.87;;
55009;SDS011;40903;51.638;7.528;2023-11-19T00:53:25;2.23;;;1.87;;
55009;SDS011;40903;51.638;7.528;2023-11-19T00:55:51;3.03;;;1.80;;
55009;SDS011;40903;51.638;7.528;2023-11-19T00:58:16;2.03;;;1.70;;
55009;SDS011;40903;51.638;7.528;2023-11-19T01:00:43;1.83;;;1.70;;
55009;SDS011;40903;51.638;7.528;2023-11-19T01:03:10;2.13;;;1.90;;
55009;SDS011;40903;51.638;7.528;2023-11-19T01:05:36;4.30;;;2.10;;
55009;SDS011;40903;51.638;7.528;2023-11-19T01:08:02;3.63;;;2.40;;
55009;SDS011;40903;51.638;7.528;2023-11-19T01:10:29;5.00;;;3.00;;
55009;SDS011;40903;51.638;7.528;2023-11-19T01:12:55;4.30;;;3.33;;
55009;SDS011;40903;51.638;7.528;2023-11-19T01:15:21;4.97;;;3.60;;
55009;SDS011;40903;51.638;7.528;2023-11-19T01:17:50;3.70;;;2.90;;
55009;SDS011;40903;51.638;7.528;2023-11-19T01:20:16;6.43;;;3.33;;
55009;SDS011;40903;51.638;7.528;2023-11-19T01:22:42;5.20;;;3.77;;
55009;SDS011;40903;51.638;7.528;2023-11-19T01:25:08;5.33;;;3.73;;
55009;SDS011;40903;51.638;7.528;2023-11-19T01:27:34;4.33;;;3.87;;
55009;SDS011;40903;51.638;7.528;2023-11-19T01:30:03;6.30;;;3.87;;
55009;SDS011;40903;51.638;7.528;2023-11-19T01:32:31;3.83;;;3.20;;
55009;SDS011;40903;51.638;7.528;2023-11-19T01:34:56;7.27;;;3.90;;
55009;SDS011;40903;51.638;7.528;2023-11-19T01:37:23;4.57;;;3.60;;
55009;SDS011;40903;51.638;7.528;2023-11-19T01:39:48;7.97;;;3.73;;
55009;SDS011;40903;51.638;7.528;2023-11-19T01:42:14;4.90;;;3.90;;
55009;SDS011;40903;51.638;7.528;2023-11-19T01:44:40;5.83;;;3.33;;
55009;SDS011;40903;51.638;7.528;2023-11-19T01:47:06;4.63;;;3.73;;
55009;SDS011;40903;51.638;7.528;2023-11-19T01:49:33;4.20;;;3.37;;
55009;SDS011;40903;51.638;7.528;2023-11-19T01:51:59;4.97;;;3.57;;
55009;SDS011;40903;51.638;7.528;2023-11-19T01:54:25;3.77;;;3.27;;
55009;SDS011;40903;51.638;7.528;2023-11-19T01:56:53;6.20;;;3.00;;
55009;SDS011;40903;51.638;7.528;2023-11-19T01:59:21;4.40;;;3.00;;
55009;SDS011;40903;51.638;7.528;2023-11-19T02:01:51;3.47;;;3.17;;
55009;SDS011;40903;51.638;7.528;2023-11-19T02:04:20;4.30;;;2.80;;
55009;SDS011;40903;51.638;7.528;2023-11-19T02:06:46;5.67;;;2.93;;
55009;SDS011;40903;51.638;7.528;2023-11-19T02:09:15;3.63;;;2.60;;
55009;SDS011;40903;51.638;7.528;2023-11-19T02:11:44;2.37;;;2.17;;
55009;SDS011;40903;51.638;7.528;2023-11-19T02:14:13;6.60;;;2.10;;
55009;SDS011;40903;51.638;7.528;2023-11-19T02:16:39;1.70;;;1.50;;
55009;SDS011;40903;51.638;7.528;2023-11-19T02:19:04;2.20;;;1.83;;
55009;SDS011;40903;51.638;7.528;2023-11-19T02:21:31;2.17;;;1.97;;
55009;SDS011;40903;51.638;7.528;2023-11-19T02:23:57;2.83;;;2.50;;
55009;SDS011;40903;51.638;7.528;2023-11-19T02:26:30;2.10;;;1.90;;
55009;SDS011;40903;51.638;7.528;2023-11-19T02:29:04;2.53;;;1.90;;
55009;SDS011;40903;51.638;7.528;2023-11-19T02:31:32;3.00;;;2.60;;
55009;SDS011;40903;51.638;7.528;2023-11-19T02:33:57;2.00;;;1.80;;
55009;SDS011;40903;51.638;7.528;2023-11-19T02:36:26;3.57;;;2.30;;
55009;SDS011;40903;51.638;7.528;2023-11-19T02:38:51;4.17;;;2.10;;
55009;SDS011;40903;51.638;7.528;2023-11-19T02:41:17;2.90;;;1.70;;
55009;SDS011;40903;51.638;7.528;2023-11-19T02:43:42;3.53;;;2.33;;
55009;SDS011;40903;51.638;7.528;2023-11-19T02:46:08;3.03;;;2.50;;
55009;SDS011;40903;51.638;7.528;2023-11-19T02:48:34;3.57;;;2.07;;
55009;SDS011;40903;51.638;7.528;2023-11-19T02:51:03;2.97;;;2.10;;
55009;SDS011;40903;51.638;7.528;2023-11-19T02:53:30;4.83;;;2.30;;
55009;SDS011;40903;51.638;7.528;2023-11-19T02:55:57;4.30;;;2.67;;
55009;SDS011;40903;51.638;7.528;2023-11-19T02:58:42;4.00;;;2.47;;
55009;SDS011;40903;51.638;7.528;2023-11-19T03:01:10;3.93;;;2.60;;
55009;SDS011;40903;51.638;7.528;2023-11-19T03:03:44;2.80;;;2.30;;
55009;SDS011;40903;51.638;7.528;2023-11-19T03:06:14;3.60;;;2.40;;
55009;SDS011;40903;51.638;7.528;2023-11-19T03:08:40;3.77;;;2.37;;
55009;SDS011;40903;51.638;7.528;2023-11-19T03:11:05;3.87;;;2.70;;
55009;SDS011;40903;51.638;7.528;2023-11-19T03:13:31;4.20;;;2.17;;
55009;SDS011;40903;51.638;7.528;2023-11-19T03:15:56;3.80;;;2.70;;
55009;SDS011;40903;51.638;7.528;2023-11-19T03:18:22;4.80;;;2.50;;
55009;SDS011;40903;51.638;7.528;2023-11-19T03:20:50;5.50;;;2.17;;
55009;SDS011;40903;51.638;7.528;2023-11-19T03:23:17;3.23;;;2.33;;
55009;SDS011;40903;51.638;7.528;2023-11-19T03:25:43;8.50;;;2.40;;
55009;SDS011;40903;51.638;7.528;2023-11-19T03:28:08;3.30;;;2.30;;
55009;SDS011;40903;51.638;7.528;2023-11-19T03:30:36;10.73;;;2.50;;
55009;SDS011;40903;51.638;7.528;2023-11-19T03:33:02;5.20;;;2.80;;
55009;SDS011;40903;51.638;7.528;2023-11-19T03:35:28;8.77;;;3.00;;
55009;SDS011;40903;51.638;7.528;2023-11-19T03:37:54;6.33;;;3.23;;
55009;SDS011;40903;51.638;7.528;2023-11-19T03:40:20;7.37;;;2.97;;
55009;SDS011;40903;51.638;7.528;2023-11-19T03:42:46;8.90;;;3.57;;
55009;SDS011;40903;51.638;7.528;2023-11-19T03:45:11;11.10;;;3.97;;
55009;SDS011;40903;51.638;7.528;2023-11-19T03:47:37;7.87;;;3.40;;
55009;SDS011;40903;51.638;7.528;2023-11-19T03:50:07;9.23;;;3.93;;
55009;SDS011;40903;51.638;7.528;2023-11-19T03:52:33;7.93;;;4.10;;
55009;SDS011;40903;51.638;7.528;2023-11-19T03:54:59;12.47;;;3.77;;
55009;SDS011;40903;51.638;7.528;2023-11-19T03:57:26;7.57;;;4.03;;
55009;SDS011;40903;51.638;7.528;2023-11-19T03:59:53;10.63;;;3.80;;
55009;SDS011;40903;51.638;7.528;2023-11-19T04:02:18;11.87;;;4.33;;
55009;SDS011;40903;51.638;7.528;2023-11-19T04:04:44;7.60;;;3.27;;
55009;SDS011;40903;51.638;7.528;2023-11-19T04:07:10;7.80;;;3.70;;
55009;SDS011;40903;51.638;7.528;2023-11-19T04:09:35;8.77;;;3.07;;
55009;SDS011;40903;51.638;7.528;2023-11-19T04:12:02;7.70;;;4.33;;
55009;SDS011;40903;51.638;7.528;2023-11-19T04:14:28;7.17;;;3.37;;
55009;SDS011;40903;51.638;7.528;2023-11-19T04:16:54;10.03;;;3.50;;
55009;SDS011;40903;51.638;7.528;2023-11-19T04:19:20;9.33;;;4.00;;
55009;SDS011;40903;51.638;7.528;2023-11-19T04:21:45;7.57;;;3.30;;
55009;SDS011;40903;51.638;7.528;2023-11-19T04:24:11;5.90;;;2.90;;
55009;SDS011;40903;51.638;7.528;2023-11-19T04:26:44;4.80;;;2.73;;
55009;SDS011;40903;51.638;7.528;2023-11-19T04:29:13;14.60;;;4.00;;
55009;SDS011;40903;51.638;7.528;2023-11-19T04:31:40;14.03;;;3.60;;
55009;SDS011;40903;51.638;7.528;2023-11-19T04:34:06;8.10;;;3.57;;
55009;SDS011;40903;51.638;7.528;2023-11-19T04:36:33;8.73;;;3.40;;
55009;SDS011;40903;51.638;7.528;2023-11-19T04:38:59;10.20;;;4.57;;
55009;SDS011;40903;51.638;7.528;2023-11-19T04:41:26;11.17;;;3.23;;
55009;SDS011;40903;51.638;7.528;2023-11-19T04:43:55;12.17;;;3.37;;
55009;SDS011;40903;51.638;7.528;2023-11-19T04:46:21;8.73;;;3.40;;
55009;SDS011;40903;51.638;7.528;2023-11-19T04:48:48;10.03;;;3.30;;
55009;SDS011;40903;51.638;7.528;2023-11-19T04:51:14;11.87;;;3.57;;
55009;SDS011;40903;51.638;7.528;2023-11-19T04:53:40;9.87;;;3.37;;
55009;SDS011;40903;51.638;7.528;2023-11-19T04:56:10;16.17;;;4.93;;
55009;SDS011;40903;51.638;7.528;2023-11-19T04:58:36;11.43;;;3.73;;
55009;SDS011;40903;51.638;7.528;2023-11-19T05:01:05;8.60;;;3.67;;
55009;SDS011;40903;51.638;7.528;2023-11-19T05:03:31;14.57;;;3.70;;
55009;SDS011;40903;51.638;7.528;2023-11-19T05:05:57;16.70;;;5.00;;
55009;SDS011;40903;51.638;7.528;2023-11-19T05:08:23;12.60;;;4.20;;
55009;SDS011;40903;51.638;7.528;2023-11-19T05:10:49;10.43;;;2.97;;
55009;SDS011;40903;51.638;7.528;2023-11-19T05:13:15;17.03;;;4.80;;
55009;SDS011;40903;51.638;7.528;2023-11-19T05:15:40;10.10;;;3.43;;
55009;SDS011;40903;51.638;7.528;2023-11-19T05:18:06;13.60;;;3.20;;
55009;SDS011;40903;51.638;7.528;2023-11-19T05:20:32;12.87;;;3.43;;
55009;SDS011;40903;51.638;7.528;2023-11-19T05:22:57;12.80;;;4.03;;
55009;SDS011;40903;51.638;7.528;2023-11-19T05:25:25;12.70;;;3.17;;
55009;SDS011;40903;51.638;7.528;2023-11-19T05:27:52;8.67;;;3.20;;
55009;SDS011;40903;51.638;7.528;2023-11-19T05:30:18;24.07;;;4.67;;
55009;SDS011;40903;51.638;7.528;2023-11-19T05:32:43;13.90;;;3.40;;
55009;SDS011;40903;51.638;7.528;2023-11-19T05:35:09;16.20;;;4.50;;
55009;SDS011;40903;51.638;7.528;2023-11-19T05:37:34;17.77;;;3.93;;
55009;SDS011;40903;51.638;7.528;2023-11-19T05:40:00;16.13;;;4.67;;
55009;SDS011;40903;51.638;7.528;2023-11-19T05:42:28;18.57;;;4.87;;
55009;SDS011;40903;51.638;7.528;2023-11-19T05:44:54;25.47;;;5.00;;
55009;SDS011;40903;51.638;7.528;2023-11-19T05:47:19;17.10;;;4.30;;
55009;SDS011;40903;51.638;7.528;2023-11-19T05:49:45;17.77;;;3.57;;
55009;SDS011;40903;51.638;7.528;2023-11-19T05:52:11;14.63;;;4.20;;
55009;SDS011;40903;51.638;7.528;2023-11-19T05:54:37;11.57;;;3.90;;
55009;SDS011;40903;51.638;7.528;2023-11-19T05:57:06;15.40;;;4.23;;
55009;SDS011;40903;51.638;7.528;2023-11-19T05:59:34;16.33;;;5.43;;
55009;SDS011;40903;51.638;7.528;2023-11-19T06:02:01;21.37;;;5.57;;
55009;SDS011;40903;51.638;7.528;2023-11-19T06:04:28;15.13;;;5.23;;
55009;SDS011;40903;51.638;7.528;2023-11-19T06:06:53;17.37;;;3.73;;
55009;SDS011;40903;51.638;7.528;2023-11-19T06:09:22;19.47;;;4.57;;
55009;SDS011;40903;51.638;7.528;2023-11-19T06:11:50;17.90;;;4.37;;
55009;SDS011;40903;51.638;7.528;2023-11-19T06:14:17;16.83;;;4.50;;
55009;SDS011;40903;51.638;7.528;2023-11-19T06:16:43;14.90;;;4.00;;
55009;SDS011;40903;51.638;7.528;2023-11-19T06:19:09;17.90;;;3.90;;
55009;SDS011;40903;51.638;7.528;2023-11-19T06:21:36;13.10;;;3.40;;
55009;SDS011;40903;51.638;7.528;2023-11-19T06:24:02;7.60;;;2.83;;
55009;SDS011;40903;51.638;7.528;2023-11-19T06:26:28;21.73;;;3.77;;
55009;SDS011;40903;51.638;7.528;2023-11-19T06:28:54;13.17;;;3.17;;
55009;SDS011;40903;51.638;7.528;2023-11-19T06:31:19;16.00;;;3.97;;
55009;SDS011;40903;51.638;7.528;2023-11-19T06:33:45;22.53;;;3.97;;
55009;SDS011;40903;51.638;7.528;2023-11-19T06:36:13;19.87;;;4.77;;
55009;SDS011;40903;51.638;7.528;2023-11-19T06:38:41;16.37;;;4.33;;
55009;SDS011;40903;51.638;7.528;2023-11-19T06:41:07;15.03;;;4.40;;
55009;SDS011;40903;51.638;7.528;2023-11-19T06:43:34;11.73;;;3.70;;
55009;SDS011;40903;51.638;7.528;2023-11-19T06:46:00;18.97;;;4.87;;
55009;SDS011;40903;51.638;7.528;2023-11-19T06:48:26;16.83;;;4.87;;
55009;SDS011;40903;51.638;7.528;2023-11-19T06:50:52;9.60;;;3.90;;
55009;SDS011;40903;51.638;7.528;2023-11-19T06:53:18;12.37;;;4.13;;
55009;SDS011;40903;51.638;7.528;2023-11-19T06:55:44;18.43;;;4.30;;
55009;SDS011;40903;51.638;7.528;2023-11-19T06:58:10;14.33;;;4.07;;
55009;SDS011;40903;51.638;7.528;2023-11-19T07:00:37;17.77;;;4.27;;
55009;SDS011;40903;51.638;7.528;2023-11-19T07:03:02;16.47;;;3.83;;
55009;SDS011;40903;51.638;7.528;2023-11-19T07:05:28;16.30;;;3.87;;
55009;SDS011;40903;51.638;7.528;2023-11-19T07:07:55;11.13;;;3.50;;
55009;SDS011;40903;51.638;7.528;2023-11-19T07:10:21;15.23;;;3.83;;
55009;SDS011;40903;51.638;7.528;2023-11-19T07:12:46;18.40;;;4.57;;
55009;SDS011;40903;51.638;7.528;2023-11-19T07:15:12;17.80;;;4.80;;
55009;SDS011;40903;51.638;7.528;2023-11-19T07:17:41;14.50;;;3.73;;
55009;SDS011;40903;51.638;7.528;2023-11-19T07:20:06;14.13;;;3.47;;
55009;SDS011;40903;51.638;7.528;2023-11-19T07:22:32;18.17;;;4.13;;
55009;SDS011;40903;51.638;7.528;2023-11-19T07:24:58;11.60;;;4.07;;
55009;SDS011;40903;51.638;7.528;2023-11-19T07:27:23;13.07;;;3.53;;
55009;SDS011;40903;51.638;7.528;2023-11-19T07:29:49;20.07;;;4.73;;
55009;SDS011;40903;51.638;7.528;2023-11-19T07:32:14;17.60;;;4.17;;
55009;SDS011;40903;51.638;7.528;2023-11-19T07:34:40;19.53;;;3.90;;
55009;SDS011;40903;51.638;7.528;2023-11-19T07:37:06;17.67;;;4.13;;
55009;SDS011;40903;51.638;7.528;2023-11-19T07:39:32;16.37;;;5.30;;
55009;SDS011;40903;51.638;7.528;2023-11-19T07:41:58;14.07;;;4.77;;
55009;SDS011;40903;51.638;7.528;2023-11-19T07:44:23;12.23;;;4.50;;
55009;SDS011;40903;51.638;7.528;2023-11-19T07:46:49;13.93;;;4.20;;
55009;SDS011;40903;51.638;7.528;2023-11-19T07:49:15;11.93;;;4.17;;
55009;SDS011;40903;51.638;7.528;2023-11-19T07:51:40;19.83;;;3.97;;
55009;SDS011;40903;51.638;7.528;2023-11-19T07:54:06;17.53;;;3.93;;
55009;SDS011;40903;51.638;7.528;2023-11-19T07:56:33;14.07;;;3.80;;
55009;SDS011;40903;51.638;7.528;2023-11-19T07:59:00;15.47;;;5.37;;
55009;SDS011;40903;51.638;7.528;2023-11-19T08:01:25;24.33;;;4.67;;
55009;SDS011;40903;51.638;7.528;2023-11-19T08:03:51;20.87;;;3.67;;
55009;SDS011;40903;51.638;7.528;2023-11-19T08:06:17;13.33;;;4.03;;
55009;SDS011;40903;51.638;7.528;2023-11-19T08:08:42;19.80;;;4.47;;
55009;SDS011;40903;51.638;7.528;2023-11-19T08:11:08;14.57;;;3.97;;
55009;SDS011;40903;51.638;7.528;2023-11-19T08:13:33;16.17;;;3.60;;
55009;SDS011;40903;51.638;7.528;2023-11-19T08:15:59;13.67;;;4.57;;
55009;SDS011;40903;51.638;7.528;2023-11-19T08:18:25;24.03;;;4.40;;
55009;SDS011;40903;51.638;7.528;2023-11-19T08:20:50;16.43;;;4.90;;
55009;SDS011;40903;51.638;7.528;2023-11-19T08:23:18;19.60;;;4.17;;
55009;SDS011;40903;51.638;7.528;2023-11-19T08:25:45;12.37;;;4.13;;
55009;SDS011;40903;51.638;7.528;2023-11-19T08:28:11;13.30;;;3.83;;
55009;SDS011;40903;51.638;7.528;2023-11-19T08:30:36;23.17;;;3.83;;
55009;SDS011;40903;51.638;7.528;2023-11-19T08:33:02;21.20;;;4.00;;
55009;SDS011;40903;51.638;7.528;2023-11-19T08:35:31;16.23;;;4.27;;
55009;SDS011;40903;51.638;7.528;2023-11-19T08:37:57;17.23;;;3.53;;
55009;SDS011;40903;51.638;7.528;2023-11-19T08:40:24;18.43;;;3.73;;
55009;SDS011;40903;51.638;7.528;2023-11-19T08:42:51;19.13;;;4.17;;
55009;SDS011;40903;51.638;7.528;2023-11-19T08:45:17;20.13;;;4.37;;
55009;SDS011;40903;51.638;7.528;2023-11-19T08:47:42;20.83;;;3.83;;
55009;SDS011;40903;51.638;7.528;2023-11-19T08:50:10;23.40;;;3.83;;
55009;SDS011;40903;51.638;7.528;2023-11-19T08:52:37;25.03;;;4.73;;
55009;SDS011;40903;51.638;7.528;2023-11-19T08:55:02;13.03;;;4.67;;
55009;SDS011;40903;51.638;7.528;2023-11-19T08:57:30;13.17;;;3.63;;
55009;SDS011;40903;51.638;7.528;2023-11-19T08:59:56;19.00;;;4.53;;
55009;SDS011;40903;51.638;7.528;2023-11-19T09:02:21;13.87;;;3.83;;
55009;SDS011;40903;51.638;7.528;2023-11-19T09:04:47;22.43;;;3.40;;
55009;SDS011;40903;51.638;7.528;2023-11-19T09:07:13;24.73;;;4.10;;
55009;SDS011;40903;51.638;7.528;2023-11-19T09:09:38;18.53;;;4.27;;
55009;SDS011;40903;51.638;7.528;2023-11-19T09:12:04;21.00;;;4.20;;
55009;SDS011;40903;51.638;7.528;2023-11-19T09:14:30;16.00;;;4.13;;
55009;SDS011;40903;51.638;7.528;2023-11-19T09:16:55;19.60;;;4.40;;
55009;SDS011;40903;51.638;7.528;2023-11-19T09:19:21;15.87;;;4.63;;
55009;SDS011;40903;51.638;7.528;2023-11-19T09:21:47;18.93;;;3.90;;
55009;SDS011;40903;51.638;7.528;2023-11-19T09:24:14;15.27;;;4.63;;
55009;SDS011;40903;51.638;7.528;2023-11-19T09:26:40;20.13;;;4.23;;
55009;SDS011;40903;51.638;7.528;2023-11-19T09:29:09;14.20;;;3.83;;
55009;SDS011;40903;51.638;7.528;2023-11-19T09:31:35;14.33;;;3.50;;
55009;SDS011;40903;51.638;7.528;2023-11-19T09:34:03;24.73;;;4.57;;
55009;SDS011;40903;51.638;7.528;2023-11-19T09:36:29;21.27;;;4.40;;
55009;SDS011;40903;51.638;7.528;2023-11-19T09:38:55;18.83;;;3.67;;
55009;SDS011;40903;51.638;7.528;2023-11-19T09:41:20;22.27;;;4.87;;
55009;SDS011;40903;51.638;7.528;2023-11-19T09:43:46;19.03;;;4.10;;
55009;SDS011;40903;51.638;7.528;2023-11-19T09:46:13;21.37;;;4.67;;
55009;SDS011;40903;51.638;7.528;2023-11-19T09:48:40;16.83;;;4.30;;
55009;SDS011;40903;51.638;7.528;2023-11-19T09:51:07;13.27;;;3.23;;
55009;SDS011;40903;51.638;7.528;2023-11-19T09:53:37;17.17;;;3.60;;
55009;SDS011;40903;51.638;7.528;2023-11-19T09:56:03;17.03;;;4.73;;
55009;SDS011;40903;51.638;7.528;2023-11-19T09:58:30;22.00;;;4.43;;
55009;SDS011;40903;51.638;7.528;2023-11-19T10:00:57;16.40;;;3.90;;
55009;SDS011;40903;51.638;7.528;2023-11-19T10:03:30;10.77;;;3.40;;
55009;SDS011;40903;51.638;7.528;2023-11-19T10:05:58;18.07;;;4.10;;
55009;SDS011;40903;51.638;7.528;2023-11-19T10:08:26;19.27;;;4.10;;
55009;SDS011;40903;51.638;7.528;2023-11-19T10:10:52;16.87;;;4.57;;
55009;SDS011;40903;51.638;7.528;2023-11-19T10:13:17;22.90;;;4.40;;
55009;SDS011;40903;51.638;7.528;2023-11-19T10:15:43;12.80;;;3.73;;
55009;SDS011;40903;51.638;7.528;2023-11-19T10:18:09;14.73;;;4.30;;
55009;SDS011;40903;51.638;7.528;2023-11-19T10:20:41;16.67;;;4.17;;
55009;SDS011;40903;51.638;7.528;2023-11-19T10:23:07;21.93;;;4.13;;
55009;SDS011;40903;51.638;7.528;2023-11-19T10:25:32;14.90;;;4.30;;
55009;SDS011;40903;51.638;7.528;2023-11-19T10:27:59;12.97;;;3.27;;
55009;SDS011;40903;51.638;7.528;2023-11-19T10:30:28;18.37;;;4.37;;
55009;SDS011;40903;51.638;7.528;2023-11-19T10:35:55;17.37;;;4.13;;
55009;SDS011;40903;51.638;7.528;2023-11-19T10:38:22;13.17;;;4.03;;
55009;SDS011;40903;51.638;7.528;2023-11-19T10:40:49;18.17;;;4.33;;
55009;SDS011;40903;51.638;7.528;2023-11-19T10:43:16;17.90;;;3.97;;
55009;SDS011;40903;51.638;7.528;2023-11-19T10:45:44;18.13;;;3.83;;
55009;SDS011;40903;51.638;7.528;2023-11-19T10:48:10;14.70;;;4.23;;
55009;SDS011;40903;51.638;7.528;2023-11-19T10:50:37;14.27;;;3.90;;
55009;SDS011;40903;51.638;7.528;2023-11-19T10:53:05;19.77;;;4.30;;
55009;SDS011;40903;51.638;7.528;2023-11-19T10:55:32;18.63;;;4.23;;
55009;SDS011;40903;51.638;7.528;2023-11-19T10:58:00;18.33;;;4.30;;
55009;SDS011;40903;51.638;7.528;2023-11-19T11:01:15;23.77;;;4.17;;
55009;SDS011;40903;51.638;7.528;2023-11-19T11:03:19;25.63;;;4.73;;
55009;SDS011;40903;51.638;7.528;2023-11-19T11:05:48;18.90;;;4.73;;
55009;SDS011;40903;51.638;7.528;2023-11-19T11:08:15;18.43;;;3.97;;
55009;SDS011;40903;51.638;7.528;2023-11-19T11:10:45;14.33;;;4.27;;
55009;SDS011;40903;51.638;7.528;2023-11-19T11:13:16;19.83;;;3.43;;
55009;SDS011;40903;51.638;7.528;2023-11-19T11:15:43;22.00;;;4.40;;
55009;SDS011;40903;51.638;7.528;2023-11-19T11:18:11;22.43;;;5.17;;
55009;SDS011;40903;51.638;7.528;2023-11-19T11:20:38;18.43;;;4.03;;
55009;SDS011;40903;51.638;7.528;2023-11-19T11:25:57;17.17;;;5.40;;
55009;SDS011;40903;51.638;7.528;2023-11-19T11:36:31;18.93;;;4.27;;
55009;SDS011;40903;51.638;7.528;2023-11-19T11:39:08;17.37;;;4.23;;
55009;SDS011;40903;51.638;7.528;2023-11-19T11:41:34;14.03;;;5.20;;
55009;SDS011;40903;51.638;7.528;2023-11-19T11:44:00;20.63;;;4.93;;
55009;SDS011;40903;51.638;7.528;2023-11-19T11:49:01;20.73;;;4.63;;
55009;SDS011;40903;51.638;7.528;2023-11-19T11:54:09;18.07;;;3.57;;
55009;SDS011;40903;51.638;7.528;2023-11-19T11:56:38;18.80;;;4.13;;
55009;SDS011;40903;51.638;7.528;2023-11-19T11:59:19;15.10;;;3.30;;
55009;SDS011;40903;51.638;7.528;2023-11-19T12:02:00;16.70;;;3.70;;
55009;SDS011;40903;51.638;7.528;2023-11-19T12:04:26;18.47;;;3.27;;
55009;SDS011;40903;51.638;7.528;2023-11-19T12:07:05;16.00;;;3.73;;
55009;SDS011;40903;51.638;7.528;2023-11-19T12:09:32;17.93;;;4.03;;
55009;SDS011;40903;51.638;7.528;2023-11-19T12:15:12;16.13;;;3.77;;
55009;SDS011;40903;51.638;7.528;2023-11-19T12:17:47;13.60;;;3.30;;
55009;SDS011;40903;51.638;7.528;2023-11-19T12:20:15;16.13;;;3.93;;
55009;SDS011;40903;51.638;7.528;2023-11-19T12:22:42;10.33;;;2.93;;
55009;SDS011;40903;51.638;7.528;2023-11-19T12:25:09;12.50;;;3.00;;
55009;SDS011;40903;51.638;7.528;2023-11-19T12:27:37;17.80;;;3.50;;
55009;SDS011;40903;51.638;7.528;2023-11-19T12:30:05;12.77;;;3.03;;
55009;SDS011;40903;51.638;7.528;2023-11-19T12:32:41;11.60;;;2.97;;
55009;SDS011;40903;51.638;7.528;2023-11-19T12:35:10;14.63;;;3.50;;
55009;SDS011;40903;51.638;7.528;2023-11-19T12:37:43;20.67;;;3.77;;
55009;SDS011;40903;51.638;7.528;2023-11-19T12:40:19;10.60;;;3.23;;
55009;SDS011;40903;51.638;7.528;2023-11-19T12:42:47;18.53;;;2.80;;
55009;SDS011;40903;51.638;7.528;2023-11-19T12:45:16;6.03;;;2.37;;
55009;SDS011;40903;51.638;7.528;2023-11-19T12:47:44;17.97;;;3.70;;
55009;SDS011;40903;51.638;7.528;2023-11-19T12:50:12;18.07;;;3.27;;
55009;SDS011;40903;51.638;7.528;2023-11-19T12:52:37;8.67;;;3.70;;
55009;SDS011;40903;51.638;7.528;2023-11-19T12:55:25;12.50;;;2.83;;
55009;SDS011;40903;51.638;7.528;2023-11-19T12:57:54;13.80;;;3.30;;
55009;SDS011;40903;51.638;7.528;2023-11-19T13:00:23;9.87;;;3.00;;
55009;SDS011;40903;51.638;7.528;2023-11-19T13:02:51;11.47;;;2.80;;
55009;SDS011;40903;51.638;7.528;2023-11-19T13:05:27;11.80;;;2.90;;
55009;SDS011;40903;51.638;7.528;2023-11-19T13:08:04;12.20;;;4.00;;
55009;SDS011;40903;51.638;7.528;2023-11-19T13:10:31;12.57;;;3.30;;
55009;SDS011;40903;51.638;7.528;2023-11-19T13:13:03;11.30;;;3.50;;
55009;SDS011;40903;51.638;7.528;2023-11-19T13:15:31;16.33;;;3.70;;
55009;SDS011;40903;51.638;7.528;2023-11-19T13:17:58;11.40;;;3.50;;
55009;SDS011;40903;51.638;7.528;2023-11-19T13:20:25;21.43;;;3.80;;
55009;SDS011;40903;51.638;7.528;2023-11-19T13:22:57;14.27;;;3.13;;
55009;SDS011;40903;51.638;7.528;2023-11-19T13:25:25;13.77;;;3.27;;
55009;SDS011;40903;51.638;7.528;2023-11-19T13:27:53;15.07;;;4.60;;
55009;SDS011;40903;51.638;7.528;2023-11-19T13:30:19;13.53;;;3.60;;
55009;SDS011;40903;51.638;7.528;2023-11-19T13:32:52;15.77;;;4.80;;
55009;SDS011;40903;51.638;7.528;2023-11-19T13:35:19;10.93;;;3.37;;
55009;SDS011;40903;51.638;7.528;2023-11-19T13:37:45;12.13;;;3.67;;
55009;SDS011;40903;51.638;7.528;2023-11-19T13:40:14;16.37;;;4.50;;
55009;SDS011;40903;51.638;7.528;2023-11-19T13:42:43;16.27;;;3.43;;
55009;SDS011;40903;51.638;7.528;2023-11-19T13:45:10;11.33;;;4.40;;
55009;SDS011;40903;51.638;7.528;2023-11-19T13:47:45;12.03;;;4.57;;
55009;SDS011;40903;51.638;7.528;2023-11-19T13:50:13;19.77;;;5.47;;
55009;SDS011;40903;51.638;7.528;2023-11-19T13:52:42;14.50;;;4.30;;
55009;SDS011;40903;51.638;7.528;2023-11-19T13:55:10;16.20;;;4.73;;
55009;SDS011;40903;51.638;7.528;2023-11-19T13:57:37;12.97;;;4.33;;
55009;SDS011;40903;51.638;7.528;2023-11-19T14:00:03;16.23;;;3.80;;
55009;SDS011;40903;51.638;7.528;2023-11-19T14:02:31;17.97;;;4.60;;
55009;SDS011;40903;51.638;7.528;2023-11-19T14:04:59;13.87;;;3.17;;
55009;SDS011;40903;51.638;7.528;2023-11-19T14:07:25;10.53;;;2.93;;
55009;SDS011;40903;51.638;7.528;2023-11-19T14:09:51;11.77;;;3.57;;
55009;SDS011;40903;51.638;7.528;2023-11-19T14:12:17;10.73;;;3.57;;
55009;SDS011;40903;51.638;7.528;2023-11-19T14:14:42;12.33;;;2.47;;
55009;SDS011;40903;51.638;7.528;2023-11-19T14:17:09;13.47;;;3.13;;
55009;SDS011;40903;51.638;7.528;2023-11-19T14:19:36;14.83;;;3.63;;
55009;SDS011;40903;51.638;7.528;2023-11-19T14:22:03;16.37;;;3.20;;
55009;SDS011;40903;51.638;7.528;2023-11-19T14:24:29;9.00;;;3.20;;
55009;SDS011;40903;51.638;7.528;2023-11-19T14:26:54;14.37;;;3.00;;
55009;SDS011;40903;51.638;7.528;2023-11-19T14:29:23;9.30;;;2.80;;
55009;SDS011;40903;51.638;7.528;2023-11-19T14:31:48;15.73;;;3.33;;
55009;SDS011;40903;51.638;7.528;2023-11-19T14:34:14;13.40;;;2.77;;
55009;SDS011;40903;51.638;7.528;2023-11-19T14:36:39;16.47;;;3.93;;
55009;SDS011;40903;51.638;7.528;2023-11-19T14:39:05;11.53;;;2.90;;
55009;SDS011;40903;51.638;7.528;2023-11-19T14:41:32;8.40;;;2.37;;
55009;SDS011;40903;51.638;7.528;2023-11-19T14:43:57;17.23;;;3.67;;
55009;SDS011;40903;51.638;7.528;2023-11-19T14:46:23;9.00;;;3.10;;
55009;SDS011;40903;51.638;7.528;2023-11-19T14:48:49;8.93;;;2.93;;
55009;SDS011;40903;51.638;7.528;2023-11-19T14:51:17;14.27;;;4.00;;
55009;SDS011;40903;51.638;7.528;2023-11-19T14:53:43;15.73;;;2.90;;
55009;SDS011;40903;51.638;7.528;2023-11-19T14:56:12;14.73;;;3.33;;
55009;SDS011;40903;51.638;7.528;2023-11-19T14:58:38;10.63;;;2.50;;
55009;SDS011;40903;51.638;7.528;2023-11-19T15:01:04;14.87;;;2.83;;